Main page
METAR-TAF:

METAR-TAF

Airports :

Orange, France

Orange-Caritat Air Base

latitude: 44-08N, longitude: 004-50E, elevation: 60 m

Current weather observation

The report was made 12 minutes ago, at 04:30 UTC
Wind 3 kt from the North
Temperature 10°C
Humidity 62%
Pressure 1012 hPa
Visibility 10 km or more
Scattered clouds at a height of 2500 ft

METAR: LFMO 270430Z AUTO 01003KT 9999 SCT025 10/03 Q1012 NOSIG

Time: 06:42 (04:42 UTC)

Forecast

The report was made 2 hours and 42 minutes ago, at 02:00 UTC
Forecast valid from 27 at 03 UTC to 28 at 03 UTC
Wind 12 kt from the North
Visibility 10 km or more
no clouds below 1500 m and no cumulonimbus
Becoming
from 27 at 08 UTC to 27 at 10 UTC
Wind 10 kt from the South/Southwest
Becoming
from 27 at 19 UTC to 27 at 21 UTC
Wind 2 kt from variable directions

TAF: LFMO 270200Z 2703/2803 35012KT CAVOK BECMG 2708/2710 21010KT BECMG 2719/2721 VRB02KT

Weather observations and forecasts of more than 4000 airports (METAR and TAF reports).

The available stations are represented by yellow and red dots on the map.

Hover mouse over dot to see the name of the station.

Then click to see weather observations and forecasts.

To change the map : click on the green buttons with a black cross to zoom in, on the green button with a dash to zoom out, or on the green arrows for adjacent maps.


METAR-TAF: